Time;durP1;ratioP1;P1;durP2;ratioP2;P2;SDS_P1;SDS_P2;PMS_P1;PMS_P2;Temp;Humidity;BMP_temperature;BMP_pressure;BME280_temperature;BME280_humidity;BME280_pressure;Samples;Min_cycle;Max_cycle;Signal;HPM_P1;HPM_P2
2022/12/04 00:01:33;;;;;;;5.32;1.73;;;;;;;5.85;86.79;100188.09;4997874;28;20133;-71
2022/12/04 00:04:02;;;;;;;1.67;1.58;;;;;;;5.87;86.75;100186.44;4980380;28;20050;-71
2022/12/04 00:06:33;;;;;;;1.48;1.38;;;;;;;5.89;86.61;100184.81;4998264;28;20496;-72
2022/12/04 00:09:02;;;;;;;0.65;0.65;;;;;;;5.85;86.54;100177.97;4998005;28;20058;-71
2022/12/04 00:11:32;;;;;;;2.88;2.35;;;;;;;5.63;86.21;100153.72;4997712;28;20125;-71
2022/12/04 00:14:01;;;;;;;3.03;1.45;;;;;;;5.83;86.39;100190.53;4980603;28;20455;-72
2022/12/04 00:16:35;;;;;;;1.95;1.15;;;;;;;5.83;86.40;100194.75;4997631;28;20097;-71
2022/12/04 00:19:04;;;;;;;2.83;2.55;;;;;;;5.81;86.15;100204.84;4997548;28;20109;-71
2022/12/04 00:21:35;;;;;;;5.68;4.03;;;;;;;5.80;86.47;100190.47;4997506;28;20105;-72
2022/12/04 00:24:05;;;;;;;0.60;0.60;;;;;;;5.79;86.48;100192.94;4997785;28;20042;-71
2022/12/04 00:26:34;;;;;;;1.35;1.25;;;;;;;5.78;86.30;100191.25;4997642;28;20054;-71
2022/12/04 00:29:03;;;;;;;1.90;1.75;;;;;;;5.79;86.64;100187.88;4997655;28;20400;-71
2022/12/04 00:31:32;;;;;;;1.13;1.02;;;;;;;5.82;86.58;100193.03;4997321;28;20053;-72
2022/12/04 00:34:01;;;;;;;1.15;1.02;;;;;;;5.83;86.29;100187.16;4997531;28;20374;-71
2022/12/04 00:36:30;;;;;;;1.45;1.35;;;;;;;5.84;86.58;100196.47;4997047;28;20101;-71
2022/12/04 00:39:00;;;;;;;5.18;2.85;;;;;;;5.83;86.23;100194.75;4998134;28;20484;-71
2022/12/04 00:41:32;;;;;;;1.48;1.38;;;;;;;5.83;86.81;100194.75;4997104;28;20133;-70
2022/12/04 00:44:01;;;;;;;1.67;1.58;;;;;;;5.82;86.18;100198.09;4997118;28;20055;-72
2022/12/04 00:46:30;;;;;;;1.30;1.20;;;;;;;5.81;86.69;100191.31;4997197;28;20125;-71
2022/12/04 00:49:01;;;;;;;1.00;1.00;;;;;;;5.81;86.49;100186.25;4997013;28;20062;-71
2022/12/04 00:51:30;;;;;;;0.93;0.93;;;;;;;5.79;86.12;100188.75;4997305;28;20057;-72
2022/12/04 00:54:01;;;;;;;1.20;0.93;;;;;;;5.80;86.49;100184.53;4997088;28;20511;-71
2022/12/04 00:56:29;;;;;;;0.60;0.60;;;;;;;5.51;86.76;100135.66;4996675;28;20097;-72
2022/12/04 00:59:00;;;;;;;1.98;1.75;;;;;;;5.77;86.63;100184.47;4996822;28;20133;-71
2022/12/04 01:01:30;;;;;;;2.30;1.80;;;;;;;5.76;86.67;100187.81;4963462;28;20061;-71
2022/12/04 01:03:59;;;;;;;1.33;1.23;;;;;;;5.74;86.32;100189.44;4979620;28;20420;-71
2022/12/04 01:06:30;;;;;;;0.65;0.65;;;;;;;5.75;86.87;100191.16;4996970;28;20116;-71
2022/12/04 01:09:01;;;;;;;1.88;1.45;;;;;;;5.77;86.57;100192.06;4996854;28;20042;-72
2022/12/04 01:11:30;;;;;;;0.85;0.85;;;;;;;5.80;86.77;100189.59;4996634;28;20042;-71
2022/12/04 01:14:00;;;;;;;1.38;1.27;;;;;;;5.81;86.35;100183.72;4996572;28;20568;-71
2022/12/04 01:16:31;;;;;;;4.47;2.25;;;;;;;5.83;85.99;100187.16;4996474;28;20042;-71
2022/12/04 01:19:01;;;;;;;2.47;1.60;;;;;;;5.81;86.41;100187.09;4996835;28;20046;-72
2022/12/04 01:21:29;;;;;;;1.42;1.10;;;;;;;5.81;86.13;100183.72;4996415;28;20050;-71
2022/12/04 01:24:01;;;;;;;1.60;1.50;;;;;;;5.80;86.77;100184.53;4996716;28;20049;-72
2022/12/04 01:26:29;;;;;;;0.50;0.50;;;;;;;5.80;86.30;100179.47;4996687;28;20051;-71
2022/12/04 01:28:58;;;;;;;1.43;1.27;;;;;;;5.78;86.14;100178.59;4996544;28;20046;-71
2022/12/04 01:31:27;;;;;;;2.22;2.03;;;;;;;5.78;86.33;100181.13;4996464;28;20042;-71
2022/12/04 01:33:55;;;;;;;1.33;1.23;;;;;;;5.56;86.66;100138.31;4996493;28;20054;-71
2022/12/04 01:36:26;;;;;;;2.90;1.97;;;;;;;5.79;86.26;100167.63;4996134;28;20058;-71
2022/12/04 01:38:56;;;;;;;1.50;1.40;;;;;;;5.80;86.42;100170.22;4996146;28;20280;-71
2022/12/04 01:41:30;;;;;;;1.98;1.88;;;;;;;5.83;86.55;100166.91;4996433;28;20167;-71
2022/12/04 01:44:08;;;;;;;5.97;1.77;;;;;;;5.72;86.42;100145.50;4996069;28;20054;-72
2022/12/04 01:46:37;;;;;;;1.65;0.98;;;;;;;5.85;86.57;100160.22;4996205;28;20416;-71
2022/12/04 01:49:08;;;;;;;1.83;1.40;;;;;;;5.86;86.10;100159.41;4995802;28;20046;-71
2022/12/04 01:51:41;;;;;;;3.22;2.22;;;;;;;5.86;86.52;100150.13;4996193;28;20144;-71
2022/12/04 01:54:14;;;;;;;2.60;2.20;;;;;;;5.89;86.32;100151.88;4978706;28;20080;-70
2022/12/04 01:56:49;;;;;;;0.50;0.50;;;;;;;5.86;85.79;100160.25;4996113;28;20050;-72
2022/12/04 01:59:22;;;;;;;0.82;0.82;;;;;;;5.88;86.15;100162.81;4995728;28;20078;-71
2022/12/04 02:01:57;;;;;;;1.60;1.50;;;;;;;5.90;85.77;100167.09;4995729;28;20045;-71
2022/12/04 02:04:26;;;;;;;0.65;0.65;;;;;;;5.91;86.02;100160.38;4996003;28;20133;-71
2022/12/04 02:06:55;;;;;;;0.75;0.75;;;;;;;5.90;85.35;100161.22;4995220;28;20069;-72
2022/12/04 02:09:24;;;;;;;1.95;1.85;;;;;;;5.87;85.64;100161.13;4995201;28;20531;-71
2022/12/04 02:12:08;;;;;;;1.65;1.17;;;;;;;5.86;85.22;100164.47;4995503;28;20066;-71
2022/12/04 02:14:44;;;;;;;1.70;1.60;;;;;;;5.84;85.18;100155.94;4995504;28;20096;-71
2022/12/04 02:17:22;;;;;;;0.40;0.40;;;;;;;5.84;85.45;100150.88;4978091;28;20046;-71
2022/12/04 02:20:10;;;;;;;1.88;1.77;;;;;;;5.79;85.15;100149.88;4995649;28;20463;-71
2022/12/04 02:23:15;;;;;;;0.47;0.47;;;;;;;5.75;85.38;100145.56;4995324;28;20100;-71
2022/12/04 02:25:54;;;;;;;1.08;1.00;;;;;;;5.72;85.19;100145.50;4967414;28;20133;-71
2022/12/04 02:28:29;;;;;;;1.33;1.23;;;;;;;5.68;85.15;100134.44;4995063;28;20042;-71
2022/12/04 02:31:01;;;;;;;2.33;2.17;;;;;;;5.64;85.16;100142.75;4995451;28;20065;-71
2022/12/04 02:33:44;;;;;;;1.75;1.50;;;;;;;5.62;85.24;100148.59;4995439;28;20070;-72
2022/12/04 02:36:19;;;;;;;1.35;1.25;;;;;;;5.61;84.93;100151.97;4995064;28;20054;-71
2022/12/04 02:38:54;;;;;;;1.13;1.08;;;;;;;5.59;85.30;100148.53;4977424;28;20042;-71
2022/12/04 02:41:26;;;;;;;1.27;1.20;;;;;;;5.56;85.66;100148.44;4994962;28;20101;-72
2022/12/04 02:44:02;;;;;;;8.23;3.33;;;;;;;5.57;84.98;100147.59;4994915;28;20050;-71
2022/12/04 02:46:36;;;;;;;2.28;1.95;;;;;;;5.57;85.25;100145.06;4995221;28;20051;-71
2022/12/04 02:49:19;;;;;;;1.33;1.15;;;;;;;5.48;84.82;100139.78;4994956;28;20046;-71
2022/12/04 02:51:52;;;;;;;1.52;1.42;;;;;;;5.33;85.34;100105.66;4994803;28;20077;-70
2022/12/04 02:54:26;;;;;;;1.40;1.30;;;;;;;5.55;85.37;100144.19;4977739;28;20050;-71
2022/12/04 02:56:56;;;;;;;1.92;1.25;;;;;;;5.50;85.06;100135.59;4994722;28;20061;-71
2022/12/04 02:59:32;;;;;;;1.15;1.05;;;;;;;5.49;85.34;100131.38;4994872;28;20054;-71
2022/12/04 03:02:07;;;;;;;1.35;1.20;;;;;;;5.46;85.77;100126.22;4994878;28;20455;-71
2022/12/04 03:04:39;;;;;;;1.50;1.40;;;;;;;5.42;85.63;100121.06;4977180;28;20400;-71
2022/12/04 03:07:14;;;;;;;1.48;1.38;;;;;;;5.40;86.06;100125.25;4977270;28;20381;-71
2022/12/04 03:09:46;;;;;;;1.30;0.88;;;;;;;5.34;85.68;100117.50;4994412;28;20485;-71
2022/12/04 03:12:24;;;;;;;3.70;1.77;;;;;;;5.04;85.37;100066.06;4994751;28;20054;-71
2022/12/04 03:14:58;;;;;;;0.43;0.43;;;;;;;5.29;85.60;100121.59;4977130;28;20051;-71
2022/12/04 03:17:33;;;;;;;0.52;0.52;;;;;;;5.25;85.50;100118.94;4994380;28;20046;-71
2022/12/04 03:20:09;;;;;;;3.60;3.15;;;;;;;5.23;85.77;100126.47;4994271;28;20125;-72
2022/12/04 03:22:42;;;;;;;1.00;0.82;;;;;;;5.19;85.79;100122.13;4977335;28;20072;-71
2022/12/04 03:25:12;;;;;;;1.15;1.10;;;;;;;5.13;85.83;100114.41;4994610;28;20050;-71
2022/12/04 03:27:48;;;;;;;0.70;0.45;;;;;;;5.12;85.86;100106.75;4994238;28;20053;-71
2022/12/04 03:30:20;;;;;;;0.80;0.80;;;;;;;5.11;86.01;100116.00;4976895;28;20034;-71
2022/12/04 03:32:53;;;;;;;0.57;0.57;;;;;;;5.07;85.52;100106.63;4994763;28;20444;-71
2022/12/04 03:35:25;;;;;;;1.25;1.17;;;;;;;5.07;85.78;100111.69;4994462;28;20046;-71
2022/12/04 03:38:00;;;;;;;1.48;1.38;;;;;;;5.03;85.79;100114.09;4994306;28;20051;-71
2022/12/04 03:40:35;;;;;;;1.15;1.10;;;;;;;4.97;85.69;100108.84;4994020;28;20485;-71
2022/12/04 03:43:09;;;;;;;1.45;0.85;;;;;;;4.88;85.99;100104.38;4994131;28;20081;-71
2022/12/04 03:45:46;;;;;;;0.68;0.68;;;;;;;4.84;85.79;100112.72;4994356;28;20081;-72
2022/12/04 03:48:21;;;;;;;0.75;0.75;;;;;;;4.81;85.83;100122.72;4993988;28;20042;-71
2022/12/04 03:50:59;;;;;;;1.02;0.95;;;;;;;4.84;86.18;100112.72;4994437;28;20054;-72
2022/12/04 03:53:33;;;;;;;2.38;0.80;;;;;;;4.86;86.11;100113.59;4994307;28;20058;-71
2022/12/04 03:56:09;;;;;;;1.98;0.98;;;;;;;4.93;86.33;100112.09;4994008;28;20050;-72
2022/12/04 03:58:43;;;;;;;5.78;1.10;;;;;;;5.02;86.30;100118.28;4993996;28;20054;-72
2022/12/04 04:01:17;;;;;;;0.45;0.45;;;;;;;5.13;86.19;100116.94;4993917;28;20053;-72
2022/12/04 04:03:50;;;;;;;2.25;1.83;;;;;;;5.22;86.19;100112.13;4993937;28;20058;-71
2022/12/04 04:06:24;;;;;;;1.75;1.25;;;;;;;5.30;86.30;100115.69;4960743;28;20050;-71
2022/12/04 04:08:59;;;;;;;1.60;1.50;;;;;;;5.38;86.24;100119.28;4976716;28;20117;-71
2022/12/04 04:11:34;;;;;;;0.60;0.60;;;;;;;5.48;86.50;100114.47;4993829;28;20050;-71
2022/12/04 04:25:11;;;;;;;0.95;0.95;;;;;;;6.13;84.73;100108.56;4976801;28;20050;-71
2022/12/04 04:27:40;;;;;;;0.98;0.98;;;;;;;6.17;84.74;100106.13;4993648;28;20042;-71
2022/12/04 04:30:10;;;;;;;1.17;1.13;;;;;;;6.22;84.12;100109.63;4993581;28;20053;-71
2022/12/04 04:32:45;;;;;;;;;;;;;;;6.25;84.13;100099.56;4997991;28;20112;-71
2022/12/04 04:35:21;;;;;;;1.55;1.45;;;;;;;6.28;83.33;100107.25;4997625;28;20431;-72
2022/12/04 04:37:56;;;;;;;1.08;1.08;;;;;;;6.31;83.18;100109.84;4997145;28;20054;-71
2022/12/04 04:40:33;;;;;;;0.38;0.38;;;;;;;6.38;83.26;100115.91;4997269;28;20048;-71
2022/12/04 04:43:08;;;;;;;2.15;2.05;;;;;;;6.43;82.91;100115.19;4997751;28;20493;-71
2022/12/04 04:45:41;;;;;;;1.08;0.85;;;;;;;6.48;82.37;100100.94;4997157;28;20061;-72
2022/12/04 04:48:15;;;;;;;4.93;3.08;;;;;;;6.49;82.33;100101.78;4997085;28;20050;-71
2022/12/04 04:50:46;;;;;;;1.35;1.25;;;;;;;6.41;81.58;100099.09;4996995;28;20085;-71
2022/12/04 04:53:19;;;;;;;0.70;0.70;;;;;;;6.33;81.91;100113.28;4997245;28;20046;-72
2022/12/04 04:55:49;;;;;;;1.88;1.65;;;;;;;6.24;81.84;100113.03;4996936;28;20043;-71
2022/12/04 04:58:20;;;;;;;1.63;1.52;;;;;;;6.21;81.56;100110.47;4996876;28;20057;-71
2022/12/04 05:00:58;;;;;;;0.50;0.50;;;;;;;6.18;81.45;100123.06;4996869;28;20042;-72
2022/12/04 05:03:29;;;;;;;1.05;1.00;;;;;;;6.13;81.25;100119.56;4997006;28;20054;-71
2022/12/04 05:05:58;;;;;;;0.60;0.60;;;;;;;6.07;81.53;100115.19;4979623;28;20054;-71
2022/12/04 05:08:27;;;;;;;0.68;0.68;;;;;;;6.04;80.90;100117.66;4979495;28;20043;-71
2022/12/04 05:10:56;;;;;;;1.23;1.13;;;;;;;6.01;81.55;100119.25;4996607;28;20058;-71
2022/12/04 05:13:25;;;;;;;0.65;0.65;;;;;;;6.05;81.83;100124.44;4996590;28;20039;-71
2022/12/04 05:15:58;;;;;;;0.73;0.73;;;;;;;6.03;81.63;100128.59;4979232;28;20133;-71
2022/12/04 05:18:29;;;;;;;0.55;0.55;;;;;;;5.73;81.40;100076.31;4996558;28;20054;-71
2022/12/04 05:20:57;;;;;;;0.90;0.88;;;;;;;5.91;81.53;100117.31;4996725;28;20089;-71
2022/12/04 05:23:26;;;;;;;1.30;1.25;;;;;;;5.82;81.56;100106.94;4996626;28;20046;-71
2022/12/04 05:26:00;;;;;;;1.40;1.30;;;;;;;5.86;81.83;100121.41;4996384;28;20126;-72
2022/12/04 05:28:29;;;;;;;0.47;0.47;;;;;;;5.89;81.58;100121.47;4979573;28;20046;-71
2022/12/04 05:30:58;;;;;;;0.60;0.60;;;;;;;5.90;81.54;100120.69;4978867;28;20049;-71
2022/12/04 05:33:29;;;;;;;1.48;0.73;;;;;;;5.96;81.84;100120.81;4996353;28;20034;-71
2022/12/04 05:35:59;;;;;;;0.50;0.50;;;;;;;6.00;81.22;100130.19;4996735;28;20448;-72
2022/12/04 05:38:28;;;;;;;1.25;1.13;;;;;;;6.02;81.74;100126.88;4979151;28;20074;-72
2022/12/04 05:40:58;;;;;;;1.50;1.40;;;;;;;5.98;81.47;100129.31;4996350;28;20046;-72
2022/12/04 05:43:27;;;;;;;0.77;0.77;;;;;;;5.90;81.50;100130.81;4977647;28;20101;-72
2022/12/04 05:46:00;;;;;;;0.30;0.30;;;;;;;5.85;81.67;100134.91;4996347;28;20084;-72
2022/12/04 05:48:30;;;;;;;1.33;1.23;;;;;;;5.83;81.48;100126.38;4996027;28;20283;-71
2022/12/04 05:50:59;;;;;;;0.75;0.75;;;;;;;5.77;81.68;100129.59;4995914;28;20045;-72
2022/12/04 05:53:27;;;;;;;0.60;0.60;;;;;;;5.69;81.64;100126.00;4996108;28;20511;-72
2022/12/04 05:55:57;;;;;;;0.98;0.98;;;;;;;5.60;81.33;100135.03;4996344;28;20046;-71
2022/12/04 05:58:26;;;;;;;0.75;0.75;;;;;;;5.54;81.28;100129.84;4996079;28;20120;-71
2022/12/04 06:00:55;;;;;;;1.00;1.00;;;;;;;5.41;81.56;100116.84;4995583;28;20412;-71
2022/12/04 06:03:24;;;;;;;1.90;1.73;;;;;;;5.39;81.46;100126.09;4995676;28;20048;-71
2022/12/04 06:05:56;;;;;;;1.33;1.23;;;;;;;5.31;81.65;100122.47;4996015;28;20046;-71
2022/12/04 06:08:25;;;;;;;0.30;0.30;;;;;;;5.21;81.52;100127.22;4995566;28;20054;-72
2022/12/04 06:10:53;;;;;;;2.25;1.75;;;;;;;5.17;81.81;100123.78;4995870;28;20038;-71
2022/12/04 06:13:22;;;;;;;1.23;0.68;;;;;;;5.10;82.20;100132.00;4995734;28;20039;-71
2022/12/04 06:15:50;;;;;;;0.73;0.73;;;;;;;4.99;82.19;100133.34;4995444;28;20049;-71
2022/12/04 06:18:19;;;;;;;1.80;1.67;;;;;;;5.01;82.05;100136.81;4995316;28;20089;-71
2022/12/04 06:20:48;;;;;;;2.25;1.65;;;;;;;4.97;82.55;100140.03;4995576;28;20137;-71
2022/12/04 06:23:18;;;;;;;;;;;;;;;4.97;83.17;100135.00;4995967;28;20050;-71
2022/12/04 06:25:50;;;;;;;1.48;1.38;;;;;;;5.05;83.34;100143.66;4995461;28;20004;-72
2022/12/04 06:28:18;;;;;;;0.63;0.63;;;;;;;5.09;83.09;100132.81;4978305;28;20054;-71
2022/12/04 06:30:47;;;;;;;2.08;1.20;;;;;;;5.09;83.38;100130.28;4995048;28;20034;-72
2022/12/04 06:33:16;;;;;;;0.40;0.40;;;;;;;5.09;83.27;100148.00;4995458;28;20450;-72
2022/12/04 06:35:44;;;;;;;1.63;1.50;;;;;;;5.02;83.37;100155.34;4995289;28;20048;-71
2022/12/04 06:38:13;;;;;;;1.00;0.95;;;;;;;4.98;83.63;100156.94;4995065;28;20509;-71
2022/12/04 06:40:43;;;;;;;2.95;0.85;;;;;;;4.98;83.63;100167.06;4995165;28;20042;-71
2022/12/04 06:43:12;;;;;;;0.77;0.77;;;;;;;4.98;83.62;100167.06;4994891;28;20050;-73
2022/12/04 06:45:40;;;;;;;0.60;0.60;;;;;;;4.99;83.86;100163.72;4977911;28;20048;-71
2022/12/04 06:48:09;;;;;;;5.43;2.83;;;;;;;4.90;83.62;100176.09;4995070;28;20511;-72
2022/12/04 06:50:38;;;;;;;0.60;0.60;;;;;;;4.87;84.01;100178.53;4994729;28;20049;-72
2022/12/04 06:53:07;;;;;;;1.38;1.27;;;;;;;4.88;84.05;100167.59;4977577;28;20187;-71
2022/12/04 06:55:36;;;;;;;1.73;1.15;;;;;;;4.91;84.30;100174.44;4994750;28;20118;-72
2022/12/04 06:58:06;;;;;;;1.25;1.17;;;;;;;4.97;84.38;100175.44;4995188;28;20405;-72
2022/12/04 07:00:35;;;;;;;1.90;1.67;;;;;;;5.07;84.72;100172.38;4995210;28;20088;-72
2022/12/04 07:03:03;;;;;;;3.88;1.70;;;;;;;5.15;84.84;100173.47;4994618;28;20499;-72
2022/12/04 07:05:32;;;;;;;1.10;1.05;;;;;;;5.23;84.68;100174.53;4994853;28;20040;-72
2022/12/04 07:08:01;;;;;;;2.75;2.55;;;;;;;5.29;84.73;100164.59;4994800;28;20377;-72
2022/12/04 07:10:30;;;;;;;1.83;1.73;;;;;;;5.45;85.25;100167.56;4994319;28;20045;-71
2022/12/04 07:12:59;;;;;;;1.77;1.67;;;;;;;5.61;84.77;100168.00;4994313;28;20065;-71
2022/12/04 07:15:29;;;;;;;0.80;0.80;;;;;;;5.74;84.56;100169.16;4994489;28;20078;-71
2022/12/04 07:17:58;;;;;;;0.88;0.85;;;;;;;5.82;84.56;100168.56;4994495;28;20061;-72
2022/12/04 07:20:26;;;;;;;0.68;0.68;;;;;;;5.98;84.22;100185.03;4994467;28;20588;-71
2022/12/04 07:22:55;;;;;;;1.00;1.00;;;;;;;6.08;84.04;100172.66;4994231;28;20047;-71
2022/12/04 07:25:23;;;;;;;1.23;1.13;;;;;;;6.14;83.76;100181.22;4994265;28;20038;-71
2022/12/04 07:27:52;;;;;;;0.98;0.98;;;;;;;6.17;83.55;100177.06;4994484;28;20069;-71
2022/12/04 07:30:21;;;;;;;2.37;1.27;;;;;;;6.20;82.94;100187.28;4994052;28;20046;-71
2022/12/04 07:32:51;;;;;;;3.60;1.40;;;;;;;6.20;82.94;100184.75;4994461;28;20504;-71
2022/12/04 07:35:19;;;;;;;1.05;1.02;;;;;;;6.17;82.96;100179.59;4994137;28;20054;-71
2022/12/04 07:37:48;;;;;;;0.88;0.88;;;;;;;6.26;82.94;100189.13;4994019;28;20048;-72
2022/12/04 07:40:17;;;;;;;1.77;1.67;;;;;;;6.31;82.71;100188.41;4994055;28;20042;-72
2022/12/04 07:42:45;;;;;;;0.60;0.60;;;;;;;6.31;82.55;100174.91;4994395;28;20053;-71
2022/12/04 07:45:14;;;;;;;3.22;1.25;;;;;;;6.46;82.39;100186.25;4994245;28;20685;-72
2022/12/04 07:47:43;;;;;;;1.02;0.95;;;;;;;6.55;82.51;100186.47;4994362;28;20034;-71
2022/12/04 07:50:13;;;;;;;3.22;2.55;;;;;;;6.61;82.22;100186.63;4993894;28;20104;-71
2022/12/04 07:52:41;;;;;;;1.80;1.70;;;;;;;6.76;82.77;100183.56;4976680;28;20043;-71
2022/12/04 07:55:10;;;;;;;2.35;2.15;;;;;;;6.87;81.82;100178.72;4993915;28;20045;-72
2022/12/04 07:57:38;;;;;;;6.85;2.75;;;;;;;7.00;82.78;100171.44;4993132;28;20129;-73
2022/12/04 08:00:08;;;;;;;3.42;2.38;;;;;;;7.17;81.68;100179.38;5010266;28;20112;-71
2022/12/04 08:02:40;;;;;;;7.97;4.45;;;;;;;7.30;81.77;100178.78;5013738;28;20046;-72
2022/12/04 08:05:09;;;;;;;2.25;2.05;;;;;;;7.42;81.60;100168.88;5013781;28;20041;-71
2022/12/04 08:07:39;;;;;;;2.22;1.92;;;;;;;7.48;81.29;100181.72;5017249;28;20435;-70
2022/12/04 08:10:08;;;;;;;2.10;1.90;;;;;;;7.46;81.45;100178.31;5017249;28;20081;-71
2022/12/04 08:12:40;;;;;;;1.02;0.95;;;;;;;7.48;80.85;100170.69;4999738;28;20038;-71
2022/12/04 08:15:12;;;;;;;1.08;0.98;;;;;;;7.55;79.87;100167.44;5017057;28;20104;-72
2022/12/04 08:17:41;;;;;;;1.63;1.52;;;;;;;7.57;79.00;100166.66;5017143;28;20504;-71
2022/12/04 08:20:10;;;;;;;1.85;1.67;;;;;;;7.57;79.46;100173.41;5024614;28;20045;-71
2022/12/04 08:22:40;;;;;;;1.48;0.75;;;;;;;7.61;78.77;100178.56;4992348;28;20054;-71
2022/12/04 08:25:09;;;;;;;1.33;1.23;;;;;;;7.70;79.05;100173.66;5017345;28;20046;-71
2022/12/04 08:27:38;;;;;;;12.93;3.50;;;;;;;7.75;79.19;100164.44;4999843;28;20034;-71
2022/12/04 08:30:14;;;;;;;0.93;0.90;;;;;;;7.91;78.34;100168.13;5016950;28;20046;-72
2022/12/04 08:32:42;;;;;;;9.02;1.63;;;;;;;8.01;76.49;100170.84;5016787;28;20042;-70
2022/12/04 08:35:11;;;;;;;1.13;1.05;;;;;;;8.06;76.00;100169.22;5016898;28;20516;-71
2022/12/04 08:37:41;;;;;;;0.40;0.40;;;;;;;7.87;75.99;100123.16;5016618;28;20046;-71
2022/12/04 08:40:12;;;;;;;0.40;0.40;;;;;;;8.19;75.27;100184.69;5017259;28;20050;-71
2022/12/04 08:42:43;;;;;;;3.00;1.08;;;;;;;8.21;74.89;100183.88;5016995;28;20099;-71
2022/12/04 08:45:12;;;;;;;1.70;1.60;;;;;;;8.27;74.79;100185.72;4999218;28;20050;-71
2022/12/04 08:47:41;;;;;;;2.83;1.90;;;;;;;8.31;74.75;100182.38;5016990;28;20573;-71
2022/12/04 08:50:13;;;;;;;1.30;1.20;;;;;;;8.18;73.70;100152.50;5016574;28;20492;-71
2022/12/04 08:52:44;;;;;;;1.15;1.05;;;;;;;8.31;75.01;100184.94;5016641;28;20042;-71
2022/12/04 08:55:16;;;;;;;6.85;1.60;;;;;;;8.35;74.62;100190.09;5017202;28;20081;-71
2022/12/04 08:57:45;;;;;;;0.77;0.77;;;;;;;8.40;73.46;100190.16;5016963;28;20524;-71
2022/12/04 09:00:16;;;;;;;0.90;0.88;;;;;;;8.43;73.34;100196.16;5016341;28;20112;-70
2022/12/04 09:02:53;;;;;;;0.47;0.47;;;;;;;8.49;73.01;100195.41;5016716;28;20054;-70
2022/12/04 09:05:21;;;;;;;0.57;0.57;;;;;;;8.51;72.49;100188.66;5016288;28;20120;-70
2022/12/04 09:07:51;;;;;;;0.75;0.75;;;;;;;8.50;72.23;100177.63;5016560;28;20073;-70
2022/12/04 09:10:20;;;;;;;2.33;1.63;;;;;;;8.52;72.01;100181.03;5016786;28;20053;-71
2022/12/04 09:12:49;;;;;;;1.77;1.63;;;;;;;8.54;72.78;100173.44;5017021;28;20488;-70
2022/12/04 09:15:20;;;;;;;0.40;0.40;;;;;;;8.53;72.23;100172.59;5016134;28;20136;-71
2022/12/04 09:17:49;;;;;;;1.38;1.27;;;;;;;8.53;71.94;100166.63;5016625;28;20403;-71
2022/12/04 09:20:18;;;;;;;1.98;1.00;;;;;;;8.51;71.15;100161.53;4994019;28;20080;-72
2022/12/04 09:22:49;;;;;;;2.53;1.45;;;;;;;8.54;71.31;100168.38;4998891;28;20065;-71
2022/12/04 09:25:35;;;;;;;0.52;0.52;;;;;;;8.55;71.73;100164.97;4996383;28;20137;-70
2022/12/04 09:28:04;;;;;;;1.05;0.98;;;;;;;8.53;71.79;100159.88;4996605;28;20460;-71
2022/12/04 09:30:33;;;;;;;0.52;0.52;;;;;;;8.57;72.00;100164.16;4986841;28;20136;-70
2022/12/04 09:33:01;;;;;;;0.50;0.50;;;;;;;8.60;71.87;100159.13;5015957;28;20447;-71
2022/12/04 09:35:30;;;;;;;0.60;0.60;;;;;;;8.62;71.93;100156.59;5016131;28;20034;-71
2022/12/04 09:37:58;;;;;;;1.38;1.27;;;;;;;8.66;71.22;100154.13;5015476;28;20089;-72
2022/12/04 09:40:29;;;;;;;1.02;0.98;;;;;;;8.66;71.50;100153.28;5015816;28;20041;-71
2022/12/04 09:43:19;;;;;;;1.13;1.02;;;;;;;8.65;70.86;100161.72;5015728;28;20034;-71
2022/12/04 09:45:51;;;;;;;1.25;0.80;;;;;;;8.65;71.42;100157.50;5015860;28;20054;-71
2022/12/04 09:48:27;;;;;;;1.25;1.15;;;;;;;8.66;71.22;100159.19;4998333;28;20407;-71
2022/12/04 09:50:56;;;;;;;0.43;0.43;;;;;;;8.68;71.38;100156.69;5015198;28;20523;-71
2022/12/04 09:53:29;;;;;;;1.25;1.15;;;;;;;8.71;70.71;100146.53;5015907;28;20396;-71
2022/12/04 09:56:02;;;;;;;0.70;0.70;;;;;;;8.73;70.58;100150.81;5015360;28;20053;-70
2022/12/04 09:58:40;;;;;;;0.68;0.68;;;;;;;8.75;71.29;100150.88;5015782;28;20054;-69
2022/12/04 10:01:19;;;;;;;2.85;1.30;;;;;;;8.79;70.67;100150.06;5015098;28;20070;-72
2022/12/04 10:03:48;;;;;;;0.88;0.88;;;;;;;8.82;71.37;100142.47;5015317;28;20492;-72
2022/12/04 10:06:21;;;;;;;1.08;1.00;;;;;;;8.84;70.81;100143.34;4997597;28;20058;-71
2022/12/04 10:08:58;;;;;;;1.15;1.13;;;;;;;8.81;70.58;100133.13;5015197;28;20053;-71
2022/12/04 10:11:39;;;;;;;3.58;1.38;;;;;;;8.89;70.29;100141.72;5015022;28;20107;-70
2022/12/04 10:14:29;;;;;;;1.75;1.55;;;;;;;8.94;70.88;100137.53;5015421;28;20072;-71
2022/12/04 10:17:22;;;;;;;1.33;1.23;;;;;;;9.01;70.76;100126.59;5014347;28;20030;-71
2022/12/04 10:20:11;;;;;;;0.77;0.77;;;;;;;9.05;70.82;100133.44;5013891;28;20096;-70
2022/12/04 10:22:55;;;;;;;0.65;0.65;;;;;;;9.02;70.14;100128.28;5000082;28;20052;-72
2022/12/04 10:25:26;;;;;;;1.38;1.23;;;;;;;8.99;70.21;100125.75;5018263;28;20061;-71
2022/12/04 10:28:03;;;;;;;1.23;1.13;;;;;;;9.06;69.69;100135.16;5014497;28;20052;-70
2022/12/04 10:30:37;;;;;;;1.42;1.33;;;;;;;9.08;70.05;100137.72;5014919;28;20058;-71
2022/12/04 10:33:16;;;;;;;0.90;0.90;;;;;;;9.08;70.33;100133.47;5015196;28;20038;-72
2022/12/04 10:35:51;;;;;;;1.13;1.05;;;;;;;9.10;69.61;100126.72;4997452;28;20046;-71
2022/12/04 10:38:31;;;;;;;0.77;0.77;;;;;;;9.10;69.30;100121.63;5014492;28;20058;-71
2022/12/04 10:41:04;;;;;;;2.03;1.85;;;;;;;9.14;69.53;100123.34;5014946;28;20041;-71
2022/12/04 10:43:45;;;;;;;0.43;0.43;;;;;;;9.14;69.15;100108.06;5014851;28;20046;-71
2022/12/04 10:46:21;;;;;;;1.80;1.70;;;;;;;9.21;69.00;100109.84;5014946;28;20088;-70
2022/12/04 10:48:53;;;;;;;1.55;1.00;;;;;;;9.27;69.11;100104.00;5015019;28;20428;-71
2022/12/04 10:51:22;;;;;;;1.17;1.10;;;;;;;9.32;69.33;100103.22;5014182;28;20054;-70
2022/12/04 10:53:51;;;;;;;1.42;1.33;;;;;;;9.18;68.33;100074.19;5014435;28;20377;-71
2022/12/04 10:56:22;;;;;;;1.88;1.23;;;;;;;9.34;68.82;100101.53;5014246;28;20057;-70
2022/12/04 10:58:59;;;;;;;0.52;0.52;;;;;;;9.33;68.82;100099.81;4997085;28;20045;-71
2022/12/04 11:01:32;;;;;;;0.75;0.75;;;;;;;9.32;68.59;100098.13;5014194;28;20500;-70
2022/12/04 11:04:05;;;;;;;0.68;0.63;;;;;;;9.34;67.93;100100.66;5014119;28;20136;-71
2022/12/04 11:06:35;;;;;;;1.23;1.15;;;;;;;9.30;68.17;100094.69;5014142;28;20500;-70
2022/12/04 11:09:04;;;;;;;0.55;0.55;;;;;;;9.28;67.82;100098.94;5014109;28;20057;-70
2022/12/04 11:11:37;;;;;;;1.27;1.17;;;;;;;9.31;68.19;100091.31;5014251;28;20125;-71
2022/12/04 11:14:13;;;;;;;0.65;0.65;;;;;;;9.28;67.84;100095.53;5030819;28;20042;-70
2022/12/04 11:16:47;;;;;;;1.08;0.98;;;;;;;9.30;67.61;100093.84;5033567;28;20057;-70
2022/12/04 11:19:20;;;;;;;1.10;0.93;;;;;;;9.30;67.63;100089.63;5033870;28;20092;-70
2022/12/04 11:21:50;;;;;;;1.00;0.93;;;;;;;9.27;68.01;100088.72;5033776;28;20049;-70
2022/12/04 11:24:23;;;;;;;0.82;0.77;;;;;;;9.24;67.63;100093.75;5033943;28;20045;-71
2022/12/04 11:26:52;;;;;;;0.70;0.70;;;;;;;9.25;67.66;100088.69;5016700;28;20554;-70
2022/12/04 11:29:31;;;;;;;2.15;1.20;;;;;;;9.25;67.88;100081.06;5033794;28;20053;-71
2022/12/04 11:32:03;;;;;;;0.70;0.70;;;;;;;9.26;67.50;100090.41;5033555;28;20095;-70
2022/12/04 11:34:41;;;;;;;1.52;1.42;;;;;;;9.24;68.05;100083.56;5033622;28;20071;-71
2022/12/04 11:37:21;;;;;;;0.80;0.80;;;;;;;9.24;67.57;100079.34;5033275;28;20095;-71
2022/12/04 11:39:54;;;;;;;6.90;1.15;;;;;;;9.27;68.01;100074.28;5032896;28;20056;-71
2022/12/04 11:42:26;;;;;;;0.95;0.88;;;;;;;9.29;67.89;100072.59;5033155;28;20140;-71
2022/12/04 11:44:56;;;;;;;1.55;1.45;;;;;;;9.29;67.88;100071.75;5033716;28;20053;-70
2022/12/04 11:47:31;;;;;;;0.98;0.98;;;;;;;9.29;68.00;100064.97;5034201;28;20136;-71
2022/12/04 11:50:10;;;;;;;3.90;1.52;;;;;;;9.30;67.77;100071.78;5033313;28;20574;-71
2022/12/04 11:52:50;;;;;;;1.30;1.00;;;;;;;9.31;68.58;100063.28;5033188;28;20052;-70
2022/12/04 11:55:24;;;;;;;;;;;;;;;9.31;68.23;100065.84;5033842;28;20077;-71
2022/12/04 11:58:17;;;;;;;0.40;0.40;;;;;;;9.26;68.37;100059.84;5033189;28;19921;-71
2022/12/04 12:00:55;;;;;;;1.50;0.93;;;;;;;9.32;67.83;100057.38;5033471;28;20050;-70
2022/12/04 12:03:34;;;;;;;3.35;1.13;;;;;;;9.33;67.21;100053.97;5032986;28;20100;-70
2022/12/04 12:06:23;;;;;;;0.77;0.77;;;;;;;9.34;67.85;100058.22;5033331;28;20487;-70
2022/12/04 12:09:06;;;;;;;0.40;0.40;;;;;;;9.32;67.33;100047.19;5033094;28;20046;-70